Time;durP1;ratioP1;P1;durP2;ratioP2;P2;SDS_P1;SDS_P2;PMS_P1;PMS_P2;Temp;Humidity;BMP_temperature;BMP_pressure;BME280_temperature;BME280_humidity;BME280_pressure;Samples;Min_cycle;Max_cycle;Signal;HPM_P1;HPM_P2
2024/04/24 00:01:38;;;;;;;5.97;3.13;;;;;;;-141.50;100.00;63355.56;5407970;26;20035;-80
2024/04/24 00:04:05;;;;;;;7.25;3.10;;;;;;;-141.50;100.00;63355.56;5364064;26;20001;-82
2024/04/24 00:06:33;;;;;;;8.68;3.67;;;;;;;-141.50;100.00;63355.56;5366700;26;20001;-81
2024/04/24 00:09:00;;;;;;;6.40;3.30;;;;;;;-141.50;100.00;63355.56;5357567;26;20001;-81
2024/04/24 00:11:27;;;;;;;6.88;3.22;;;;;;;-141.50;100.00;63355.56;5370436;26;20069;-84
2024/04/24 00:13:54;;;;;;;7.40;3.70;;;;;;;-141.50;100.00;63355.56;5374266;26;20457;-82
2024/04/24 00:16:21;;;;;;;6.97;3.88;;;;;;;-141.50;100.00;63355.56;5351279;26;20226;-81
2024/04/24 00:18:51;;;;;;;8.60;4.32;;;;;;;-141.50;100.00;63355.56;5329371;26;20016;-82
2024/04/24 00:21:18;;;;;;;9.55;4.68;;;;;;;-141.50;100.00;63355.56;5373587;26;20019;-84
2024/04/24 00:23:45;;;;;;;10.18;4.70;;;;;;;-141.50;100.00;63355.56;5375908;26;20004;-83
2024/04/24 00:26:13;;;;;;;7.97;3.90;;;;;;;-141.50;100.00;63355.56;5331989;26;20471;-83
2024/04/24 00:28:41;;;;;;;7.20;4.07;;;;;;;-141.50;100.00;63355.56;5373659;26;20022;-82
2024/04/24 00:31:08;;;;;;;7.82;3.75;;;;;;;-141.50;100.00;63355.56;5351379;26;20444;-82
2024/04/24 00:33:35;;;;;;;7.10;3.42;;;;;;;-141.50;100.00;63355.56;5330606;26;20050;-83
2024/04/24 00:36:03;;;;;;;7.75;3.72;;;;;;;-141.50;100.00;63355.56;5366419;26;20015;-82
2024/04/24 00:38:30;;;;;;;6.90;3.75;;;;;;;-141.50;100.00;63355.56;5374320;26;20016;-82
2024/04/24 00:40:57;;;;;;;5.95;3.20;;;;;;;-141.50;100.00;63355.56;5373606;26;20004;-81
2024/04/24 00:43:24;;;;;;;6.00;3.55;;;;;;;-141.50;100.00;63355.56;5403378;26;20320;-80
2024/04/24 00:45:51;;;;;;;7.32;3.90;;;;;;;-141.50;100.00;63355.56;5374385;26;20016;-82
2024/04/24 00:48:18;;;;;;;8.02;3.25;;;;;;;-141.50;100.00;63355.56;5361653;26;20508;-82
2024/04/24 00:50:47;;;;;;;6.70;3.65;;;;;;;-141.50;100.00;63355.56;5361146;26;20434;-83
2024/04/24 00:53:14;;;;;;;7.15;3.38;;;;;;;-141.50;100.00;63355.56;5353912;26;20004;-81
2024/04/24 00:55:46;;;;;;;7.60;3.53;;;;;;;-141.50;100.00;63355.56;5374935;26;20004;-82
2024/04/24 00:58:16;;;;;;;8.95;3.72;;;;;;;-141.50;100.00;63355.56;5390777;26;20389;-83
2024/04/24 01:00:49;;;;;;;6.93;3.38;;;;;;;-141.50;100.00;63355.56;5369581;26;20325;-82
2024/04/24 01:03:25;;;;;;;7.45;3.67;;;;;;;-141.50;100.00;63355.56;5356567;26;20008;-82
2024/04/24 01:05:52;;;;;;;7.15;3.88;;;;;;;-141.50;100.00;63355.56;5363153;26;20049;-82
2024/04/24 01:08:19;;;;;;;7.93;3.50;;;;;;;-141.50;100.00;63355.56;5362485;26;20091;-81
2024/04/24 01:10:57;;;;;;;9.15;3.58;;;;;;;-141.50;100.00;63355.56;5335894;26;19996;-81
2024/04/24 01:13:25;;;;;;;7.95;3.45;;;;;;;-141.50;100.00;63355.56;5343457;26;20402;-81
2024/04/24 01:15:58;;;;;;;7.13;3.25;;;;;;;-141.50;100.00;63355.56;5374006;26;20445;-81
2024/04/24 01:18:27;;;;;;;7.22;3.10;;;;;;;-141.50;100.00;63355.56;5375233;26;20004;-81
2024/04/24 01:20:56;;;;;;;8.02;3.45;;;;;;;-141.50;100.00;63355.56;5377815;26;20310;-80
2024/04/24 01:23:44;;;;;;;7.00;3.20;;;;;;;-141.50;100.00;63355.56;5346526;26;20403;-81
2024/04/24 01:26:31;;;;;;;7.03;3.30;;;;;;;-141.50;100.00;63355.56;5348610;26;20326;-82
2024/04/24 01:28:58;;;;;;;5.75;3.20;;;;;;;-141.50;100.00;63355.56;5377215;26;20025;-82
2024/04/24 01:31:25;;;;;;;7.15;3.63;;;;;;;-141.50;100.00;63355.56;5377338;26;20379;-82
2024/04/24 01:33:52;;;;;;;6.72;3.78;;;;;;;-141.50;100.00;63355.56;5348597;26;20004;-83
2024/04/24 01:36:19;;;;;;;8.52;3.47;;;;;;;-141.50;100.00;63355.56;5377404;26;20020;-81
2024/04/24 01:38:46;;;;;;;8.15;3.83;;;;;;;-141.50;100.00;63355.56;5377454;26;20070;-82
2024/04/24 01:41:13;;;;;;;8.43;3.55;;;;;;;-141.50;100.00;63355.56;5377047;26;20028;-82
2024/04/24 01:43:40;;;;;;;8.18;3.53;;;;;;;-141.50;100.00;63355.56;5377775;26;20054;-81
2024/04/24 01:46:07;;;;;;;8.30;3.72;;;;;;;-141.50;100.00;63355.56;5378500;26;20019;-79
2024/04/24 01:48:34;;;;;;;8.20;3.67;;;;;;;-141.50;100.00;63355.56;5376509;26;20150;-82
2024/04/24 01:51:03;;;;;;;7.13;3.67;;;;;;;-141.50;100.00;63355.56;5377514;26;20015;-81
2024/04/24 01:53:30;;;;;;;5.80;3.40;;;;;;;-141.50;100.00;63355.56;5380207;26;20016;-82
2024/04/24 01:55:57;;;;;;;7.63;3.70;;;;;;;-141.50;100.00;63355.56;5349419;26;20020;-81
2024/04/24 01:58:25;;;;;;;6.80;3.60;;;;;;;-141.50;100.00;63355.56;5378044;26;20016;-82
2024/04/24 02:00:52;;;;;;;8.52;4.20;;;;;;;-141.50;100.00;63355.56;5379158;26;20446;-83
2024/04/24 02:03:19;;;;;;;7.45;3.70;;;;;;;-141.50;100.00;63355.56;5375116;26;20370;-83
2024/04/24 02:05:47;;;;;;;8.35;4.00;;;;;;;-141.50;100.00;63355.56;5359951;26;20012;-83
2024/04/24 02:08:14;;;;;;;10.25;3.80;;;;;;;-141.50;100.00;63355.56;5341074;26;20461;-84
2024/04/24 02:10:41;;;;;;;7.60;3.55;;;;;;;-141.50;100.00;63355.56;5345484;26;19997;-82
2024/04/24 02:13:08;;;;;;;9.27;3.83;;;;;;;-141.50;100.00;63355.56;5340730;26;20009;-82
2024/04/24 02:15:35;;;;;;;6.30;3.78;;;;;;;-141.50;100.00;63355.56;5342405;26;20005;-83
2024/04/24 02:18:06;;;;;;;7.65;3.85;;;;;;;-141.50;100.00;63355.56;5341560;26;20531;-83
2024/04/24 02:20:34;;;;;;;7.57;3.88;;;;;;;-141.50;100.00;63355.56;5343199;26;20032;-82
2024/04/24 02:23:05;;;;;;;11.23;3.85;;;;;;;-141.50;100.00;63355.56;5368373;26;20336;-81
2024/04/24 02:25:34;;;;;;;9.25;4.47;;;;;;;-141.50;100.00;63355.56;5378313;26;20008;-82
2024/04/24 02:28:08;;;;;;;6.88;3.70;;;;;;;-141.50;100.00;63355.56;5378378;26;20000;-83
2024/04/24 02:30:35;;;;;;;7.25;3.78;;;;;;;-141.50;100.00;63355.56;5377169;26;20093;-82
2024/04/24 02:33:03;;;;;;;9.57;4.07;;;;;;;-141.50;100.00;63355.56;5377489;26;20054;-81
2024/04/24 02:35:30;;;;;;;7.25;3.80;;;;;;;-141.50;100.00;63355.56;5376974;26;20004;-80
2024/04/24 02:37:57;;;;;;;6.30;3.88;;;;;;;-141.50;100.00;63355.56;5376880;26;20514;-81
2024/04/24 02:40:25;;;;;;;8.32;3.92;;;;;;;-141.50;100.00;63355.56;5374388;26;20000;-82
2024/04/24 02:42:52;;;;;;;8.65;4.38;;;;;;;-141.50;100.00;63355.56;5377209;26;19996;-81
2024/04/24 02:45:20;;;;;;;5.65;3.33;;;;;;;-141.50;100.00;63355.56;5347862;26;20075;-83
2024/04/24 02:47:47;;;;;;;7.10;3.65;;;;;;;-141.50;100.00;63355.56;5379537;26;20420;-81
2024/04/24 02:50:15;;;;;;;9.30;4.15;;;;;;;-141.50;100.00;63355.56;5376664;26;20070;-83
2024/04/24 02:52:42;;;;;;;7.20;3.78;;;;;;;-141.50;100.00;63355.56;5344229;26;20001;-83
2024/04/24 02:55:10;;;;;;;8.32;3.33;;;;;;;-141.50;100.00;63355.56;5312262;26;20001;-81
2024/04/24 02:57:37;;;;;;;8.38;3.42;;;;;;;-141.50;100.00;63355.56;5342398;26;20016;-82
2024/04/24 03:00:05;;;;;;;6.53;3.58;;;;;;;-141.50;100.00;63355.56;5343422;26;20059;-82
2024/04/24 03:02:32;;;;;;;9.13;3.50;;;;;;;-141.50;100.00;63355.56;5346709;26;20009;-81
2024/04/24 03:05:00;;;;;;;7.78;3.70;;;;;;;-141.50;100.00;63355.56;5343472;26;20005;-81
2024/04/24 03:07:27;;;;;;;7.13;3.58;;;;;;;-141.50;100.00;63355.56;5345700;26;20004;-83
2024/04/24 03:09:54;;;;;;;6.72;3.55;;;;;;;-141.50;100.00;63355.56;5345931;26;19997;-81
2024/04/24 03:12:24;;;;;;;8.23;4.30;;;;;;;-141.50;100.00;63355.56;5343701;26;20387;-81
2024/04/24 03:14:53;;;;;;;6.45;3.63;;;;;;;-141.50;100.00;63355.56;5345399;26;20011;-83
2024/04/24 03:17:21;;;;;;;7.68;4.28;;;;;;;-141.50;100.00;63355.56;5345298;26;20017;-82
2024/04/24 03:19:48;;;;;;;7.55;3.72;;;;;;;-141.50;100.00;63355.56;5373579;26;20450;-82
2024/04/24 03:22:15;;;;;;;6.47;3.65;;;;;;;-141.50;100.00;63355.56;5380363;26;20047;-82
2024/04/24 03:24:43;;;;;;;7.68;4.00;;;;;;;-141.50;100.00;63355.56;5407155;26;20019;-81
2024/04/24 03:27:10;;;;;;;6.75;3.33;;;;;;;-141.50;100.00;63355.56;5372203;26;20013;-82
2024/04/24 03:29:38;;;;;;;11.18;3.67;;;;;;;-141.50;100.00;63355.56;5371897;26;20016;-80
2024/04/24 03:32:05;;;;;;;8.18;3.75;;;;;;;-141.50;100.00;63355.56;5377755;26;20301;-82
2024/04/24 03:34:32;;;;;;;8.18;3.80;;;;;;;-141.50;100.00;63355.56;5405853;26;20008;-82
2024/04/24 03:36:59;;;;;;;8.15;3.65;;;;;;;-141.50;100.00;63355.56;5356212;26;20000;-82
2024/04/24 03:39:27;;;;;;;7.50;3.72;;;;;;;-141.50;100.00;63355.56;5352342;26;20037;-82
2024/04/24 03:41:54;;;;;;;8.68;3.65;;;;;;;-141.50;100.00;63355.56;5367737;26;20000;-82
2024/04/24 03:44:21;;;;;;;8.25;4.20;;;;;;;-141.50;100.00;63355.56;5348227;26;20020;-82
2024/04/24 03:46:48;;;;;;;10.52;3.65;;;;;;;-141.50;100.00;63355.56;5346066;26;20419;-80
2024/04/24 03:49:15;;;;;;;8.30;3.75;;;;;;;-141.50;100.00;63355.56;5315700;26;20473;-82
2024/04/24 03:51:42;;;;;;;8.20;4.10;;;;;;;-141.50;100.00;63355.56;5344191;26;20544;-81
2024/04/24 03:54:10;;;;;;;8.13;3.60;;;;;;;-141.50;100.00;63355.56;5323598;26;20012;-80
2024/04/24 03:56:38;;;;;;;7.90;3.50;;;;;;;-141.50;100.00;63355.56;5353320;26;20004;-81
2024/04/24 03:59:05;;;;;;;7.93;3.70;;;;;;;-141.50;100.00;63355.56;5326924;26;20023;-77
2024/04/24 04:01:33;;;;;;;6.68;3.75;;;;;;;-141.50;100.00;63355.56;5347618;26;20006;-80
2024/04/24 04:04:00;;;;;;;8.45;3.95;;;;;;;-141.50;100.00;63355.56;5311355;26;20040;-80
2024/04/24 04:06:29;;;;;;;6.70;3.88;;;;;;;-141.50;100.00;63355.56;5339890;26;20017;-81
2024/04/24 04:08:56;;;;;;;7.53;3.78;;;;;;;-141.50;100.00;63355.56;5328643;26;20029;-80
2024/04/24 04:11:23;;;;;;;9.75;4.20;;;;;;;-141.50;100.00;63355.56;5341650;26;20382;-82
2024/04/24 04:13:51;;;;;;;10.73;4.20;;;;;;;-141.50;100.00;63355.56;5341748;26;20001;-79
2024/04/24 04:16:18;;;;;;;8.27;3.65;;;;;;;-141.50;100.00;63355.56;5328544;26;20009;-81
2024/04/24 04:18:45;;;;;;;7.65;3.78;;;;;;;-141.50;100.00;63355.56;5324941;26;20279;-80
2024/04/24 04:21:12;;;;;;;7.65;3.58;;;;;;;-141.50;100.00;63355.56;5362906;26;20445;-80
2024/04/24 04:23:39;;;;;;;8.52;3.85;;;;;;;-141.50;100.00;63355.56;5373364;26;20498;-81
2024/04/24 04:26:06;;;;;;;6.68;3.60;;;;;;;-141.50;100.00;63355.56;5361533;26;20060;-81
2024/04/24 04:28:33;;;;;;;9.02;4.25;;;;;;;-141.50;100.00;63355.56;5339673;26;20032;-79
2024/04/24 04:31:00;;;;;;;11.10;4.60;;;;;;;-141.50;100.00;63355.56;5374117;26;20139;-81
2024/04/24 04:33:28;;;;;;;7.50;3.95;;;;;;;-141.50;100.00;63355.56;5372572;26;20008;-80
2024/04/24 04:35:55;;;;;;;16.85;5.30;;;;;;;-141.50;100.00;63355.56;5375652;26;20000;-81
2024/04/24 04:38:22;;;;;;;15.98;6.20;;;;;;;-141.50;100.00;63355.56;5376439;26;20011;-78
2024/04/24 04:40:49;;;;;;;22.05;7.60;;;;;;;-141.50;100.00;63355.56;5374781;26;20302;-81
2024/04/24 04:43:16;;;;;;;19.60;7.43;;;;;;;-141.50;100.00;63355.56;5363794;26;20013;-81
2024/04/24 04:45:47;;;;;;;16.08;6.53;;;;;;;-141.50;100.00;63355.56;5343092;26;20009;-82
2024/04/24 04:48:16;;;;;;;20.35;7.97;;;;;;;-141.50;100.00;63355.56;5353771;26;20015;-83
2024/04/24 04:50:43;;;;;;;17.33;7.13;;;;;;;-141.50;100.00;63355.56;5377497;26;20084;-82
2024/04/24 04:53:10;;;;;;;12.80;5.72;;;;;;;-141.50;100.00;63355.56;5373793;26;20428;-82
2024/04/24 04:55:38;;;;;;;10.70;5.28;;;;;;;-141.50;100.00;63355.56;5377559;26;20008;-82
2024/04/24 04:58:05;;;;;;;14.10;4.97;;;;;;;-141.50;100.00;63355.56;5371790;26;20009;-80
2024/04/24 05:00:33;;;;;;;9.18;5.10;;;;;;;-141.50;100.00;63355.56;5347711;26;20726;-80
2024/04/24 05:03:00;;;;;;;9.02;4.30;;;;;;;-141.50;100.00;63355.56;5315491;26;20024;-80
2024/04/24 05:05:27;;;;;;;10.60;4.40;;;;;;;-141.50;100.00;63355.56;5336905;26;20033;-81
2024/04/24 05:07:54;;;;;;;9.70;4.60;;;;;;;-141.50;100.00;63355.56;5326187;26;20130;-81
2024/04/24 05:10:21;;;;;;;10.57;4.60;;;;;;;-141.50;100.00;63355.56;5370839;26;20008;-82
2024/04/24 05:12:48;;;;;;;9.60;4.75;;;;;;;-141.50;100.00;63355.56;5363101;26;20025;-81
2024/04/24 05:15:16;;;;;;;11.35;4.75;;;;;;;-141.50;100.00;63355.56;5363244;26;20020;-82
2024/04/24 05:17:43;;;;;;;8.07;4.55;;;;;;;-141.50;100.00;63355.56;5350189;26;20006;-80
2024/04/24 05:20:10;;;;;;;8.95;4.55;;;;;;;-141.50;100.00;63355.56;5328227;26;20002;-79
2024/04/24 05:22:46;;;;;;;14.10;5.10;;;;;;;-141.50;100.00;63355.56;5326454;26;20023;-80
2024/04/24 05:25:16;;;;;;;9.52;4.70;;;;;;;-141.50;100.00;63355.56;5356491;26;20015;-81
2024/04/24 05:30:30;;;;;;;9.95;4.93;;;;;;;-141.50;100.00;63355.56;5360696;26;20054;-80
2024/04/24 05:32:58;;;;;;;15.07;5.03;;;;;;;-141.50;100.00;63355.56;5349013;26;20012;-80
2024/04/24 05:35:26;;;;;;;9.40;5.30;;;;;;;-141.50;100.00;63355.56;5344591;26;20083;-82
2024/04/24 05:37:54;;;;;;;11.48;5.57;;;;;;;-141.50;100.00;63355.56;5345550;26;20013;-82
2024/04/24 05:40:21;;;;;;;13.88;5.50;;;;;;;-141.50;100.00;63355.56;5339500;26;20742;-84
2024/04/24 05:42:48;;;;;;;13.27;6.60;;;;;;;-141.50;100.00;63355.56;5334990;26;20084;-81
2024/04/24 05:45:15;;;;;;;13.65;5.53;;;;;;;-141.50;100.00;63355.56;5365791;26;20028;-81
2024/04/24 05:47:42;;;;;;;10.43;5.03;;;;;;;-141.50;100.00;63355.56;5344118;26;20007;-81
2024/04/24 05:50:10;;;;;;;11.55;5.25;;;;;;;-141.50;100.00;63355.56;5338506;26;20001;-83
2024/04/24 05:52:39;;;;;;;10.18;5.22;;;;;;;-141.50;100.00;63355.56;5340848;26;20056;-83
2024/04/24 05:55:09;;;;;;;10.98;5.10;;;;;;;-141.50;100.00;63355.56;5340448;26;20020;-82
2024/04/24 05:57:36;;;;;;;9.20;4.40;;;;;;;-141.50;100.00;63355.56;5347169;26;20373;-81
2024/04/24 06:00:09;;;;;;;10.10;4.82;;;;;;;-141.50;100.00;63355.56;5355538;26;20404;-79
2024/04/24 06:02:49;;;;;;;10.77;5.07;;;;;;;-141.50;100.00;63355.56;5370325;26;20016;-81
2024/04/24 06:05:23;;;;;;;8.55;4.25;;;;;;;-141.50;100.00;63355.56;5368220;26;20004;-80
2024/04/24 06:08:00;;;;;;;7.60;4.20;;;;;;;-141.50;100.00;63355.56;5325943;26;20039;-80
2024/04/24 06:10:27;;;;;;;10.00;4.00;;;;;;;-141.50;100.00;63355.56;5369770;26;20356;-79
2024/04/24 06:12:55;;;;;;;9.75;4.13;;;;;;;-141.50;100.00;63355.56;5381758;26;20005;-79
2024/04/24 06:15:22;;;;;;;8.98;4.10;;;;;;;-141.50;100.00;63355.56;5355486;26;20005;-79
2024/04/24 06:17:50;;;;;;;9.18;4.20;;;;;;;-141.50;100.00;63355.56;5354157;26;20343;-80
2024/04/24 06:20:23;;;;;;;7.13;3.85;;;;;;;-141.50;100.00;63355.56;5356297;26;20387;-80
2024/04/24 06:22:53;;;;;;;8.20;3.88;;;;;;;-141.50;100.00;63355.56;5355571;26;20005;-80
2024/04/24 06:25:20;;;;;;;7.57;3.75;;;;;;;-141.50;100.00;63355.56;5368374;26;20012;-82
2024/04/24 06:27:47;;;;;;;9.23;3.88;;;;;;;-141.50;100.00;63355.56;5373571;26;20004;-80
2024/04/24 06:30:14;;;;;;;6.93;3.83;;;;;;;-141.50;100.00;63355.56;5368828;26;20008;-79
2024/04/24 06:32:41;;;;;;;7.28;3.60;;;;;;;-141.50;100.00;63355.56;5362327;26;20005;-82
2024/04/24 06:35:08;;;;;;;6.68;3.42;;;;;;;-141.50;100.00;63355.56;5360409;26;20340;-80
2024/04/24 06:37:36;;;;;;;6.57;3.63;;;;;;;-141.50;100.00;63355.56;5363197;26;20009;-79
2024/04/24 06:40:03;;;;;;;9.07;3.58;;;;;;;-141.50;100.00;63355.56;5336699;26;20083;-80
2024/04/24 06:42:30;;;;;;;11.40;4.05;;;;;;;-141.50;100.00;63355.56;5369041;26;20054;-80
2024/04/24 06:44:57;;;;;;;5.30;3.63;;;;;;;-141.50;100.00;63355.56;5363835;26;20435;-80
2024/04/24 06:47:24;;;;;;;7.63;3.78;;;;;;;-141.50;100.00;63355.56;5374522;26;20004;-82
2024/04/24 06:49:52;;;;;;;6.72;3.85;;;;;;;-141.50;100.00;63355.56;5374349;26;20460;-81
2024/04/24 06:52:22;;;;;;;7.70;3.85;;;;;;;-141.50;100.00;63355.56;5328508;26;20016;-80
2024/04/24 06:54:49;;;;;;;8.98;3.40;;;;;;;-141.50;100.00;63355.56;5334652;26;20010;-82
2024/04/24 06:57:16;;;;;;;10.43;3.65;;;;;;;-141.50;100.00;63355.56;5332606;26;20016;-81
2024/04/24 06:59:44;;;;;;;10.27;4.20;;;;;;;-141.50;100.00;63355.56;5339555;26;20046;-80
2024/04/24 07:02:11;;;;;;;9.10;3.75;;;;;;;-141.50;100.00;63355.56;5337330;26;20373;-81
2024/04/24 07:04:40;;;;;;;6.93;3.35;;;;;;;-141.50;100.00;63355.56;5330298;26;20462;-80
2024/04/24 07:07:08;;;;;;;5.95;2.78;;;;;;;-141.50;100.00;63355.56;5367542;26;20082;-79
2024/04/24 07:09:35;;;;;;;5.05;2.92;;;;;;;-141.50;100.00;63355.56;5323701;26;20029;-80
2024/04/24 07:12:02;;;;;;;5.38;2.90;;;;;;;-141.50;100.00;63355.56;5328214;26;20005;-79
2024/04/24 07:14:29;;;;;;;7.90;2.90;;;;;;;-141.50;100.00;63355.56;5337821;26;20013;-81
2024/04/24 07:16:56;;;;;;;9.68;3.10;;;;;;;-141.50;100.00;63355.56;5339588;26;20020;-80
2024/04/24 07:19:23;;;;;;;7.75;3.10;;;;;;;-141.50;100.00;63355.56;5341635;26;20021;-81
2024/04/24 07:21:50;;;;;;;6.85;2.90;;;;;;;-141.50;100.00;63355.56;5337893;26;20477;-81
2024/04/24 07:24:17;;;;;;;8.05;3.38;;;;;;;-141.50;100.00;63355.56;5330213;26;20017;-82
2024/04/24 07:26:44;;;;;;;7.45;3.35;;;;;;;-141.50;100.00;63355.56;5340156;26;20009;-81
2024/04/24 07:29:12;;;;;;;8.90;3.60;;;;;;;-141.50;100.00;63355.56;5341388;26;20461;-80
2024/04/24 07:31:39;;;;;;;7.28;3.13;;;;;;;-141.50;100.00;63355.56;5341608;26;20005;-79
2024/04/24 07:34:07;;;;;;;8.30;3.28;;;;;;;-141.50;100.00;63355.56;5312894;26;20048;-79
2024/04/24 07:36:35;;;;;;;6.05;3.28;;;;;;;-141.50;100.00;63355.56;5311040;26;20005;-80
2024/04/24 07:39:02;;;;;;;5.43;3.13;;;;;;;-141.50;100.00;63355.56;5332523;26;20005;-82
2024/04/24 07:41:30;;;;;;;5.25;3.08;;;;;;;-141.50;100.00;63355.56;5343284;26;20064;-78
2024/04/24 07:43:57;;;;;;;7.72;3.78;;;;;;;-141.50;100.00;63355.56;5339084;26;20021;-81
2024/04/24 07:46:27;;;;;;;6.55;3.53;;;;;;;-141.50;100.00;63355.56;5343969;26;20005;-81
2024/04/24 07:48:54;;;;;;;5.72;3.08;;;;;;;-141.50;100.00;63355.56;5339118;26;20296;-82
2024/04/24 07:51:21;;;;;;;7.68;3.20;;;;;;;-141.50;100.00;63355.56;5370060;26;20009;-82
2024/04/24 07:53:49;;;;;;;5.60;3.25;;;;;;;-141.50;100.00;63355.56;5375563;26;20062;-80
2024/04/24 07:56:16;;;;;;;6.88;3.45;;;;;;;-141.50;100.00;63355.56;5367104;26;20017;-79
2024/04/24 07:58:43;;;;;;;10.63;4.00;;;;;;;-141.50;100.00;63355.56;5362582;26;20453;-81
2024/04/24 08:01:10;;;;;;;6.78;3.85;;;;;;;-141.50;100.00;63355.56;5345420;26;20005;-82
2024/04/24 08:03:37;;;;;;;7.97;3.97;;;;;;;-141.50;100.00;63355.56;5358719;26;20012;-81
2024/04/24 08:06:06;;;;;;;9.48;4.50;;;;;;;-141.50;100.00;63355.56;5362047;26;20015;-81
2024/04/24 08:08:38;;;;;;;9.20;4.60;;;;;;;-141.50;100.00;63355.56;5362016;26;20044;-80
2024/04/24 08:11:05;;;;;;;7.70;4.32;;;;;;;-141.50;100.00;63355.56;5362972;26;20022;-80
2024/04/24 08:13:32;;;;;;;6.35;4.00;;;;;;;-141.50;100.00;63355.56;5374717;26;20022;-81
2024/04/24 08:16:00;;;;;;;8.55;4.15;;;;;;;-141.50;100.00;63355.56;5403125;26;20345;-81
2024/04/24 08:18:27;;;;;;;8.45;4.70;;;;;;;-141.50;100.00;63355.56;5377214;26;20077;-81
2024/04/24 08:20:55;;;;;;;9.90;4.65;;;;;;;-141.50;100.00;63355.56;5339596;26;20031;-81
2024/04/24 08:23:22;;;;;;;9.40;4.68;;;;;;;-141.50;100.00;63355.56;5367351;26;20004;-81
2024/04/24 08:25:53;;;;;;;10.50;5.03;;;;;;;-141.50;100.00;63355.56;5354922;26;20004;-81
2024/04/24 08:28:21;;;;;;;10.02;4.85;;;;;;;-141.50;100.00;63355.56;5351884;26;20551;-81
2024/04/24 08:31:04;;;;;;;11.35;6.28;;;;;;;-141.50;100.00;63355.56;5371723;26;20403;-81
2024/04/24 08:33:32;;;;;;;11.65;6.30;;;;;;;-141.50;100.00;63355.56;5355779;26;20012;-82
2024/04/24 08:36:04;;;;;;;16.50;7.20;;;;;;;-141.50;100.00;63355.56;5339181;26;20005;-80
2024/04/24 08:38:32;;;;;;;15.25;7.05;;;;;;;-141.50;100.00;63355.56;5348899;26;20013;-80
2024/04/24 08:41:04;;;;;;;11.45;6.55;;;;;;;-141.50;100.00;63355.56;5325149;26;20400;-81
2024/04/24 08:43:34;;;;;;;14.30;7.07;;;;;;;-141.50;100.00;63355.56;5341558;26;20000;-83
2024/04/24 08:46:03;;;;;;;14.40;7.10;;;;;;;-141.50;100.00;63355.56;5339105;26;20849;-82
2024/04/24 08:48:32;;;;;;;16.13;7.97;;;;;;;-141.50;100.00;63355.56;5341077;26;20001;-80
2024/04/24 08:51:01;;;;;;;15.50;8.02;;;;;;;-141.50;100.00;63355.56;5296056;26;20019;-79
2024/04/24 08:53:31;;;;;;;15.23;8.15;;;;;;;-141.50;100.00;63355.56;5341567;26;20004;-80
2024/04/24 08:56:07;;;;;;;12.70;7.60;;;;;;;-141.50;100.00;63355.56;5325095;26;20032;-81
2024/04/24 08:58:36;;;;;;;15.32;8.15;;;;;;;-141.50;100.00;63355.56;5329592;26;20012;-80
2024/04/24 09:01:13;;;;;;;13.05;7.22;;;;;;;-141.50;100.00;63355.56;5367318;26;20016;-80
2024/04/24 09:03:47;;;;;;;18.40;8.50;;;;;;;-141.50;100.00;63355.56;5355781;26;20005;-81
2024/04/24 09:06:17;;;;;;;11.82;7.70;;;;;;;-141.50;100.00;63355.56;5350087;26;21070;-81
2024/04/24 09:08:45;;;;;;;15.73;8.70;;;;;;;-141.50;100.00;63355.56;5361318;26;20357;-81
2024/04/24 09:11:13;;;;;;;15.80;7.75;;;;;;;-141.50;100.00;63355.56;5367119;26;20088;-80
2024/04/24 09:13:41;;;;;;;18.35;8.18;;;;;;;-141.50;100.00;63355.56;5370234;26;21238;-80
2024/04/24 09:16:09;;;;;;;14.63;7.57;;;;;;;-141.50;100.00;63355.56;5374106;26;20012;-81
2024/04/24 09:18:36;;;;;;;16.38;7.68;;;;;;;-141.50;100.00;63355.56;5345268;26;20013;-81
2024/04/24 09:21:04;;;;;;;12.80;7.53;;;;;;;-141.50;100.00;63355.56;5354999;26;20469;-82
2024/04/24 09:23:33;;;;;;;13.07;7.35;;;;;;;-141.50;100.00;63355.56;5367058;26;20246;-79
2024/04/24 09:26:01;;;;;;;10.55;7.05;;;;;;;-141.50;100.00;63355.56;5374916;26;20368;-80
2024/04/24 09:28:28;;;;;;;13.93;7.30;;;;;;;-141.50;100.00;63355.56;5357938;26;20004;-79
2024/04/24 09:30:57;;;;;;;9.60;5.93;;;;;;;-141.50;100.00;63355.56;5373290;26;20633;-83
2024/04/24 09:33:24;;;;;;;10.60;6.43;;;;;;;-141.50;100.00;63355.56;5402714;26;20031;-81
2024/04/24 09:35:52;;;;;;;14.00;7.55;;;;;;;-141.50;100.00;63355.56;5403131;26;20040;-84
2024/04/24 09:38:22;;;;;;;13.10;6.95;;;;;;;-141.50;100.00;63355.56;5375194;26;20071;-82
2024/04/24 09:40:52;;;;;;;11.80;6.75;;;;;;;-141.50;100.00;63355.56;5357917;26;20448;-81
2024/04/24 09:43:20;;;;;;;11.93;6.68;;;;;;;-141.50;100.00;63355.56;5346975;26;20102;-81
2024/04/24 09:45:49;;;;;;;10.82;6.00;;;;;;;-141.50;100.00;63355.56;5358009;26;20011;-79
2024/04/24 09:48:16;;;;;;;11.48;6.70;;;;;;;-141.50;100.00;63355.56;5372015;26;20019;-83
2024/04/24 09:50:52;;;;;;;11.85;6.78;;;;;;;-141.50;100.00;63355.56;5342542;26;20403;-80
2024/04/24 09:53:22;;;;;;;12.07;6.65;;;;;;;-141.50;100.00;63355.56;5357531;26;20460;-82
2024/04/24 09:56:04;;;;;;;12.70;6.63;;;;;;;-141.50;100.00;63355.56;5346991;26;20454;-82
2024/04/24 09:58:34;;;;;;;11.25;6.22;;;;;;;-141.50;100.00;63355.56;5393087;26;20019;-80
2024/04/24 10:01:03;;;;;;;12.52;6.57;;;;;;;-141.50;100.00;63355.56;5380835;26;20000;-82
2024/04/24 10:03:34;;;;;;;12.15;6.57;;;;;;;-141.50;100.00;63355.56;5377624;26;20004;-80
2024/04/24 10:06:05;;;;;;;16.13;6.07;;;;;;;-141.50;100.00;63355.56;5372389;26;20008;-81
2024/04/24 10:08:32;;;;;;;9.45;6.03;;;;;;;-141.50;100.00;63355.56;5358563;26;20009;-80
2024/04/24 10:11:07;;;;;;;9.70;6.00;;;;;;;-141.50;100.00;63355.56;5365127;26;20001;-82
2024/04/24 10:13:40;;;;;;;10.70;6.30;;;;;;;-141.50;100.00;63355.56;5349647;26;20012;-82
2024/04/24 10:16:08;;;;;;;15.65;7.57;;;;;;;-141.50;100.00;63355.56;5364979;26;20019;-79
2024/04/24 10:18:35;;;;;;;17.40;8.13;;;;;;;-141.50;100.00;63355.56;5347478;26;20369;-81
2024/04/24 10:21:04;;;;;;;15.75;8.32;;;;;;;-141.50;100.00;63355.56;5363652;26;20023;-81
2024/04/24 10:23:32;;;;;;;15.40;8.43;;;;;;;-141.50;100.00;63355.56;5362770;26;20023;-80
2024/04/24 10:26:00;;;;;;;13.32;7.82;;;;;;;-141.50;100.00;63355.56;5370114;26;20009;-81
2024/04/24 10:28:27;;;;;;;15.93;8.98;;;;;;;-141.50;100.00;63355.56;5336385;26;20001;-80
2024/04/24 10:30:56;;;;;;;15.15;8.77;;;;;;;-141.50;100.00;63355.56;5369681;26;20019;-82
2024/04/24 10:33:25;;;;;;;14.68;8.77;;;;;;;-141.50;100.00;63355.56;5361055;26;20472;-80
2024/04/24 10:35:54;;;;;;;16.58;9.82;;;;;;;-141.50;100.00;63355.56;5371712;26;20347;-81
2024/04/24 10:38:25;;;;;;;17.52;9.57;;;;;;;-141.50;100.00;63355.56;5353681;26;20012;-81
2024/04/24 10:40:52;;;;;;;16.70;9.80;;;;;;;-141.50;100.00;63355.56;5365425;26;20068;-81
2024/04/24 10:43:21;;;;;;;18.92;11.07;;;;;;;-141.50;100.00;63355.56;5370238;26;20012;-81
2024/04/24 10:45:52;;;;;;;19.48;11.25;;;;;;;-141.50;100.00;63355.56;5357499;26;20015;-81
2024/04/24 10:48:19;;;;;;;19.25;11.57;;;;;;;-141.50;100.00;63355.56;5369845;26;20091;-81
2024/04/24 10:50:51;;;;;;;19.40;10.73;;;;;;;-141.50;100.00;63355.56;5364477;26;20056;-82
2024/04/24 10:53:23;;;;;;;19.25;11.55;;;;;;;-141.50;100.00;63355.56;5343433;26;20055;-82
2024/04/24 10:55:58;;;;;;;18.00;10.98;;;;;;;-141.50;100.00;63355.56;5343177;26;20005;-82
2024/04/24 10:58:26;;;;;;;18.55;9.63;;;;;;;-141.50;100.00;63355.56;5364155;26;20012;-80
2024/04/24 11:00:53;;;;;;;17.92;9.77;;;;;;;-141.50;100.00;63355.56;5375196;26;20420;-81
2024/04/24 11:03:24;;;;;;;19.13;10.90;;;;;;;-141.50;100.00;63355.56;5340046;26;20023;-80
2024/04/24 11:05:54;;;;;;;18.45;10.43;;;;;;;-141.50;100.00;63355.56;5346881;26;20008;-81
2024/04/24 11:08:24;;;;;;;18.70;9.65;;;;;;;-141.50;100.00;63355.56;5377940;26;20355;-82
2024/04/24 11:10:52;;;;;;;20.83;10.15;;;;;;;-141.50;100.00;63355.56;5375878;26;20449;-81
2024/04/24 11:13:20;;;;;;;20.92;10.32;;;;;;;-141.50;100.00;63355.56;5359369;26;20016;-80
2024/04/24 11:15:57;;;;;;;20.50;10.90;;;;;;;-141.50;100.00;63355.56;5349018;26;20445;-79